KBUR/BUR METAR and TAF weather

Enter ICAO airport designator
Station Type Date Time Source
KBUR METAR 2020/07/10 15:53 UTC NOAA

KBUR 101553Z 00000KT 10SM CLR 22/15 A3000 RMK AO2 SLP147 T02170150


Station Type Date Time Source
KBUR Decoded METAR 2020/07/10 15:53 UTC NOAA

BURBANK-GLENDALE-PASADENA, CA, United States (KBUR) 34-12N 118-22W 217M
Jul 10, 2020 - 11:53 AM EDT / 2020.07.10 1553 UTC
Wind: Calm:0
Visibility: 10 mile(s):0
Sky conditions: clear
Temperature: 71.1 F (21.7 C)
Dew Point: 59.0 F (15.0 C)
Relative Humidity: 65%
Pressure (altimeter): 30 in. Hg (1015 hPa)
ob: KBUR 101553Z 00000KT 10SM CLR 22/15 A3000 RMK AO2 SLP147 T02170150
cycle: 16

Station Type Date Time Source
KBUR TAF 2020/07/10 12:39 UTC NOAA

TAF KBUR 101137Z 1012/1112 VRB03KT P6SM SKC
FM101700 14006KT P6SM SKC
FM102000 17008KT P6SM SKC
FM110400 13006KT P6SM SKC
FM110900 VRB03KT P6SM SKC

Example: see airport list